sensor_id;sensor_type;location;lat;lon;timestamp;P1;durP1;ratioP1;P2;durP2;ratioP2
68714;SDS011;55692;53.356;10.030;2023-11-22T00:00:45;5.75;;;3.70;;
68714;SDS011;55692;53.356;10.030;2023-11-22T00:03:11;8.70;;;3.60;;
68714;SDS011;55692;53.356;10.030;2023-11-22T00:05:38;8.07;;;3.90;;
68714;SDS011;55692;53.356;10.030;2023-11-22T00:08:04;6.60;;;3.78;;
68714;SDS011;55692;53.356;10.030;2023-11-22T00:10:30;10.70;;;3.78;;
68714;SDS011;55692;53.356;10.030;2023-11-22T00:12:56;5.85;;;3.42;;
68714;SDS011;55692;53.356;10.030;2023-11-22T00:15:23;7.20;;;3.20;;
68714;SDS011;55692;53.356;10.030;2023-11-22T00:17:50;11.38;;;4.13;;
68714;SDS011;55692;53.356;10.030;2023-11-22T00:20:17;6.72;;;4.22;;
68714;SDS011;55692;53.356;10.030;2023-11-22T00:22:44;6.50;;;3.55;;
68714;SDS011;55692;53.356;10.030;2023-11-22T00:25:12;5.90;;;3.50;;
68714;SDS011;55692;53.356;10.030;2023-11-22T00:27:38;7.78;;;3.70;;
68714;SDS011;55692;53.356;10.030;2023-11-22T00:30:05;8.90;;;3.92;;
68714;SDS011;55692;53.356;10.030;2023-11-22T00:32:31;10.27;;;3.40;;
68714;SDS011;55692;53.356;10.030;2023-11-22T00:34:57;6.30;;;3.33;;
68714;SDS011;55692;53.356;10.030;2023-11-22T00:37:23;6.18;;;3.35;;
68714;SDS011;55692;53.356;10.030;2023-11-22T00:39:49;8.15;;;3.53;;
68714;SDS011;55692;53.356;10.030;2023-11-22T00:42:16;7.03;;;3.80;;
68714;SDS011;55692;53.356;10.030;2023-11-22T00:44:45;7.35;;;4.07;;
68714;SDS011;55692;53.356;10.030;2023-11-22T00:47:14;9.70;;;4.30;;
68714;SDS011;55692;53.356;10.030;2023-11-22T00:49:41;8.55;;;4.05;;
68714;SDS011;55692;53.356;10.030;2023-11-22T00:52:07;12.07;;;4.55;;
68714;SDS011;55692;53.356;10.030;2023-11-22T00:54:33;9.57;;;5.20;;
68714;SDS011;55692;53.356;10.030;2023-11-22T00:56:59;12.27;;;5.07;;
68714;SDS011;55692;53.356;10.030;2023-11-22T00:59:26;9.75;;;4.97;;
68714;SDS011;55692;53.356;10.030;2023-11-22T01:01:52;10.35;;;4.47;;
68714;SDS011;55692;53.356;10.030;2023-11-22T01:04:18;9.10;;;4.28;;
68714;SDS011;55692;53.356;10.030;2023-11-22T01:06:44;10.05;;;4.65;;
68714;SDS011;55692;53.356;10.030;2023-11-22T01:09:10;6.72;;;3.85;;
68714;SDS011;55692;53.356;10.030;2023-11-22T01:11:38;10.13;;;4.15;;
68714;SDS011;55692;53.356;10.030;2023-11-22T01:14:04;10.95;;;4.82;;
68714;SDS011;55692;53.356;10.030;2023-11-22T01:16:30;9.90;;;5.80;;
68714;SDS011;55692;53.356;10.030;2023-11-22T01:18:57;12.68;;;6.45;;
68714;SDS011;55692;53.356;10.030;2023-11-22T01:21:23;8.63;;;4.40;;
68714;SDS011;55692;53.356;10.030;2023-11-22T01:23:50;10.10;;;5.75;;
68714;SDS011;55692;53.356;10.030;2023-11-22T01:26:16;11.52;;;5.45;;
68714;SDS011;55692;53.356;10.030;2023-11-22T01:28:42;8.93;;;4.93;;
68714;SDS011;55692;53.356;10.030;2023-11-22T01:31:10;8.60;;;4.65;;
68714;SDS011;55692;53.356;10.030;2023-11-22T01:33:37;13.10;;;5.00;;
68714;SDS011;55692;53.356;10.030;2023-11-22T01:36:04;8.45;;;4.72;;
68714;SDS011;55692;53.356;10.030;2023-11-22T01:38:30;9.90;;;4.20;;
68714;SDS011;55692;53.356;10.030;2023-11-22T01:40:56;8.43;;;4.47;;
68714;SDS011;55692;53.356;10.030;2023-11-22T01:43:22;13.02;;;4.70;;
68714;SDS011;55692;53.356;10.030;2023-11-22T01:45:52;8.38;;;4.35;;
68714;SDS011;55692;53.356;10.030;2023-11-22T01:48:18;9.80;;;4.28;;
68714;SDS011;55692;53.356;10.030;2023-11-22T01:50:44;10.30;;;4.25;;
68714;SDS011;55692;53.356;10.030;2023-11-22T01:53:10;11.77;;;4.30;;
68714;SDS011;55692;53.356;10.030;2023-11-22T01:55:36;9.63;;;4.78;;
68714;SDS011;55692;53.356;10.030;2023-11-22T01:58:03;9.10;;;4.47;;
68714;SDS011;55692;53.356;10.030;2023-11-22T02:00:35;7.72;;;3.97;;
68714;SDS011;55692;53.356;10.030;2023-11-22T02:03:01;8.20;;;4.45;;
68714;SDS011;55692;53.356;10.030;2023-11-22T02:05:28;8.57;;;4.38;;
68714;SDS011;55692;53.356;10.030;2023-11-22T02:07:54;13.20;;;4.85;;
68714;SDS011;55692;53.356;10.030;2023-11-22T02:10:20;9.13;;;4.10;;
68714;SDS011;55692;53.356;10.030;2023-11-22T02:12:48;11.13;;;4.10;;
68714;SDS011;55692;53.356;10.030;2023-11-22T02:15:14;7.93;;;4.38;;
68714;SDS011;55692;53.356;10.030;2023-11-22T02:17:40;9.52;;;4.20;;
68714;SDS011;55692;53.356;10.030;2023-11-22T02:20:07;9.02;;;4.40;;
68714;SDS011;55692;53.356;10.030;2023-11-22T02:22:34;8.85;;;4.10;;
68714;SDS011;55692;53.356;10.030;2023-11-22T02:25:00;24.02;;;4.70;;
68714;SDS011;55692;53.356;10.030;2023-11-22T02:27:26;8.27;;;4.40;;
68714;SDS011;55692;53.356;10.030;2023-11-22T02:29:52;10.70;;;4.50;;
68714;SDS011;55692;53.356;10.030;2023-11-22T02:32:19;10.43;;;5.03;;
68714;SDS011;55692;53.356;10.030;2023-11-22T02:34:45;15.45;;;4.53;;
68714;SDS011;55692;53.356;10.030;2023-11-22T02:37:11;26.83;;;4.85;;
68714;SDS011;55692;53.356;10.030;2023-11-22T02:39:42;61.50;;;4.45;;
68714;SDS011;55692;53.356;10.030;2023-11-22T02:42:13;36.20;;;4.00;;
68714;SDS011;55692;53.356;10.030;2023-11-22T02:44:39;17.77;;;3.78;;
68714;SDS011;55692;53.356;10.030;2023-11-22T02:47:05;8.18;;;3.60;;
68714;SDS011;55692;53.356;10.030;2023-11-22T02:49:31;6.95;;;2.83;;
68714;SDS011;55692;53.356;10.030;2023-11-22T02:51:57;6.35;;;3.40;;
68714;SDS011;55692;53.356;10.030;2023-11-22T02:54:23;11.45;;;3.28;;
68714;SDS011;55692;53.356;10.030;2023-11-22T02:56:49;16.77;;;4.00;;
68714;SDS011;55692;53.356;10.030;2023-11-22T02:59:15;6.13;;;3.38;;
68714;SDS011;55692;53.356;10.030;2023-11-22T03:01:41;5.82;;;3.38;;
68714;SDS011;55692;53.356;10.030;2023-11-22T03:04:08;8.38;;;4.30;;
68714;SDS011;55692;53.356;10.030;2023-11-22T03:06:34;7.70;;;4.20;;
68714;SDS011;55692;53.356;10.030;2023-11-22T03:09:01;8.90;;;4.47;;
68714;SDS011;55692;53.356;10.030;2023-11-22T03:11:27;18.40;;;5.32;;
68714;SDS011;55692;53.356;10.030;2023-11-22T03:13:53;6.82;;;4.13;;
68714;SDS011;55692;53.356;10.030;2023-11-22T03:16:19;11.27;;;5.00;;
68714;SDS011;55692;53.356;10.030;2023-11-22T03:18:45;11.60;;;4.93;;
68714;SDS011;55692;53.356;10.030;2023-11-22T03:21:11;7.82;;;3.95;;
68714;SDS011;55692;53.356;10.030;2023-11-22T03:23:37;6.95;;;4.10;;
68714;SDS011;55692;53.356;10.030;2023-11-22T03:26:05;8.95;;;4.38;;
68714;SDS011;55692;53.356;10.030;2023-11-22T03:28:31;8.65;;;4.55;;
68714;SDS011;55692;53.356;10.030;2023-11-22T03:30:58;11.55;;;4.38;;
68714;SDS011;55692;53.356;10.030;2023-11-22T03:33:24;12.02;;;4.82;;
68714;SDS011;55692;53.356;10.030;2023-11-22T03:35:51;12.70;;;5.32;;
68714;SDS011;55692;53.356;10.030;2023-11-22T03:38:17;11.50;;;5.53;;
68714;SDS011;55692;53.356;10.030;2023-11-22T03:40:43;13.38;;;4.68;;
68714;SDS011;55692;53.356;10.030;2023-11-22T03:43:10;9.75;;;5.20;;
68714;SDS011;55692;53.356;10.030;2023-11-22T03:45:37;10.75;;;5.00;;
68714;SDS011;55692;53.356;10.030;2023-11-22T03:48:03;11.23;;;4.88;;
68714;SDS011;55692;53.356;10.030;2023-11-22T03:50:29;12.60;;;5.15;;
68714;SDS011;55692;53.356;10.030;2023-11-22T03:52:55;8.93;;;4.35;;
68714;SDS011;55692;53.356;10.030;2023-11-22T03:55:21;5.78;;;3.50;;
68714;SDS011;55692;53.356;10.030;2023-11-22T03:57:48;7.13;;;3.67;;
68714;SDS011;55692;53.356;10.030;2023-11-22T04:00:14;6.28;;;3.70;;
68714;SDS011;55692;53.356;10.030;2023-11-22T04:02:40;7.78;;;4.03;;
68714;SDS011;55692;53.356;10.030;2023-11-22T04:05:06;8.43;;;3.70;;
68714;SDS011;55692;53.356;10.030;2023-11-22T04:07:33;10.48;;;3.90;;
68714;SDS011;55692;53.356;10.030;2023-11-22T04:09:59;6.53;;;4.15;;
68714;SDS011;55692;53.356;10.030;2023-11-22T04:12:25;6.93;;;3.70;;
68714;SDS011;55692;53.356;10.030;2023-11-22T04:14:51;6.38;;;3.92;;
68714;SDS011;55692;53.356;10.030;2023-11-22T04:17:17;9.88;;;3.72;;
68714;SDS011;55692;53.356;10.030;2023-11-22T04:19:43;6.18;;;3.80;;
68714;SDS011;55692;53.356;10.030;2023-11-22T04:22:09;8.20;;;3.30;;
68714;SDS011;55692;53.356;10.030;2023-11-22T04:24:35;8.32;;;4.50;;
68714;SDS011;55692;53.356;10.030;2023-11-22T04:27:02;9.45;;;4.05;;
68714;SDS011;55692;53.356;10.030;2023-11-22T04:29:28;8.20;;;4.18;;
68714;SDS011;55692;53.356;10.030;2023-11-22T04:31:54;9.15;;;4.13;;
68714;SDS011;55692;53.356;10.030;2023-11-22T04:34:20;11.98;;;4.57;;
68714;SDS011;55692;53.356;10.030;2023-11-22T04:36:46;8.95;;;4.72;;
68714;SDS011;55692;53.356;10.030;2023-11-22T04:39:12;10.50;;;4.22;;
68714;SDS011;55692;53.356;10.030;2023-11-22T04:41:38;8.82;;;4.63;;
68714;SDS011;55692;53.356;10.030;2023-11-22T04:44:04;8.27;;;4.30;;
68714;SDS011;55692;53.356;10.030;2023-11-22T04:46:31;9.00;;;4.60;;
68714;SDS011;55692;53.356;10.030;2023-11-22T04:48:57;8.45;;;4.25;;
68714;SDS011;55692;53.356;10.030;2023-11-22T04:51:23;12.48;;;5.07;;
68714;SDS011;55692;53.356;10.030;2023-11-22T04:53:49;11.48;;;5.00;;
68714;SDS011;55692;53.356;10.030;2023-11-22T04:56:16;10.55;;;5.25;;
68714;SDS011;55692;53.356;10.030;2023-11-22T04:58:42;12.90;;;5.32;;
68714;SDS011;55692;53.356;10.030;2023-11-22T05:01:08;9.05;;;5.07;;
68714;SDS011;55692;53.356;10.030;2023-11-22T05:03:34;12.85;;;4.93;;
68714;SDS011;55692;53.356;10.030;2023-11-22T05:06:00;11.38;;;4.82;;
68714;SDS011;55692;53.356;10.030;2023-11-22T05:08:26;9.90;;;4.55;;
68714;SDS011;55692;53.356;10.030;2023-11-22T05:10:52;12.85;;;4.43;;
68714;SDS011;55692;53.356;10.030;2023-11-22T05:13:19;8.05;;;4.22;;
68714;SDS011;55692;53.356;10.030;2023-11-22T05:15:45;9.15;;;4.25;;
68714;SDS011;55692;53.356;10.030;2023-11-22T05:18:12;8.90;;;4.57;;
68714;SDS011;55692;53.356;10.030;2023-11-22T05:20:38;12.52;;;4.75;;
68714;SDS011;55692;53.356;10.030;2023-11-22T05:23:04;14.30;;;5.28;;
68714;SDS011;55692;53.356;10.030;2023-11-22T05:25:30;9.93;;;4.85;;
68714;SDS011;55692;53.356;10.030;2023-11-22T05:27:56;10.52;;;5.18;;
68714;SDS011;55692;53.356;10.030;2023-11-22T05:30:22;8.57;;;4.57;;
68714;SDS011;55692;53.356;10.030;2023-11-22T05:32:48;10.18;;;4.72;;
68714;SDS011;55692;53.356;10.030;2023-11-22T05:35:14;9.18;;;4.60;;
68714;SDS011;55692;53.356;10.030;2023-11-22T05:37:41;10.60;;;4.97;;
68714;SDS011;55692;53.356;10.030;2023-11-22T05:40:07;10.32;;;5.45;;
68714;SDS011;55692;53.356;10.030;2023-11-22T05:42:35;12.70;;;5.07;;
68714;SDS011;55692;53.356;10.030;2023-11-22T05:45:02;8.05;;;3.80;;
68714;SDS011;55692;53.356;10.030;2023-11-22T05:47:30;8.70;;;4.50;;
68714;SDS011;55692;53.356;10.030;2023-11-22T05:49:56;7.90;;;4.38;;
68714;SDS011;55692;53.356;10.030;2023-11-22T05:52:22;12.93;;;5.05;;
68714;SDS011;55692;53.356;10.030;2023-11-22T05:54:48;9.07;;;4.43;;
68714;SDS011;55692;53.356;10.030;2023-11-22T05:57:14;11.20;;;4.18;;
68714;SDS011;55692;53.356;10.030;2023-11-22T05:59:40;8.50;;;3.85;;
68714;SDS011;55692;53.356;10.030;2023-11-22T06:02:09;11.10;;;5.75;;
68714;SDS011;55692;53.356;10.030;2023-11-22T06:04:36;17.23;;;7.15;;
68714;SDS011;55692;53.356;10.030;2023-11-22T06:07:02;12.25;;;4.88;;
68714;SDS011;55692;53.356;10.030;2023-11-22T06:09:29;10.77;;;5.10;;
68714;SDS011;55692;53.356;10.030;2023-11-22T06:11:55;11.43;;;5.22;;
68714;SDS011;55692;53.356;10.030;2023-11-22T06:14:21;12.43;;;5.70;;
68714;SDS011;55692;53.356;10.030;2023-11-22T06:16:47;11.32;;;5.28;;
68714;SDS011;55692;53.356;10.030;2023-11-22T06:19:13;12.90;;;5.95;;
68714;SDS011;55692;53.356;10.030;2023-11-22T06:21:39;13.98;;;6.25;;
68714;SDS011;55692;53.356;10.030;2023-11-22T06:24:05;13.15;;;6.03;;
68714;SDS011;55692;53.356;10.030;2023-11-22T06:26:34;14.93;;;6.68;;
68714;SDS011;55692;53.356;10.030;2023-11-22T06:29:00;11.65;;;6.22;;
68714;SDS011;55692;53.356;10.030;2023-11-22T06:31:27;15.60;;;8.15;;
68714;SDS011;55692;53.356;10.030;2023-11-22T06:33:53;18.23;;;7.20;;
68714;SDS011;55692;53.356;10.030;2023-11-22T06:36:20;16.35;;;6.78;;
68714;SDS011;55692;53.356;10.030;2023-11-22T06:38:46;14.23;;;7.78;;
68714;SDS011;55692;53.356;10.030;2023-11-22T06:41:12;16.67;;;7.97;;
68714;SDS011;55692;53.356;10.030;2023-11-22T06:43:38;20.27;;;8.98;;
68714;SDS011;55692;53.356;10.030;2023-11-22T06:46:04;19.33;;;7.78;;
68714;SDS011;55692;53.356;10.030;2023-11-22T06:48:31;17.83;;;7.05;;
68714;SDS011;55692;53.356;10.030;2023-11-22T06:50:58;17.90;;;8.07;;
68714;SDS011;55692;53.356;10.030;2023-11-22T06:53:24;18.52;;;7.18;;
68714;SDS011;55692;53.356;10.030;2023-11-22T06:55:50;17.88;;;7.95;;
68714;SDS011;55692;53.356;10.030;2023-11-22T06:58:17;22.48;;;8.10;;
68714;SDS011;55692;53.356;10.030;2023-11-22T07:00:44;25.55;;;9.90;;
68714;SDS011;55692;53.356;10.030;2023-11-22T07:03:10;18.27;;;8.13;;
68714;SDS011;55692;53.356;10.030;2023-11-22T07:05:37;18.08;;;7.43;;
68714;SDS011;55692;53.356;10.030;2023-11-22T07:08:03;14.07;;;6.82;;
68714;SDS011;55692;53.356;10.030;2023-11-22T07:10:29;15.15;;;6.85;;
68714;SDS011;55692;53.356;10.030;2023-11-22T07:12:59;13.70;;;6.88;;
68714;SDS011;55692;53.356;10.030;2023-11-22T07:15:26;17.98;;;6.85;;
68714;SDS011;55692;53.356;10.030;2023-11-22T07:17:52;18.75;;;7.45;;
68714;SDS011;55692;53.356;10.030;2023-11-22T07:20:19;18.50;;;6.63;;
68714;SDS011;55692;53.356;10.030;2023-11-22T07:22:45;15.90;;;6.85;;
68714;SDS011;55692;53.356;10.030;2023-11-22T07:25:11;17.15;;;7.22;;
68714;SDS011;55692;53.356;10.030;2023-11-22T07:27:46;15.73;;;6.90;;
68714;SDS011;55692;53.356;10.030;2023-11-22T07:30:14;20.48;;;6.95;;
68714;SDS011;55692;53.356;10.030;2023-11-22T07:32:40;15.35;;;6.25;;
68714;SDS011;55692;53.356;10.030;2023-11-22T07:35:07;15.90;;;7.47;;
68714;SDS011;55692;53.356;10.030;2023-11-22T07:37:37;18.05;;;7.20;;
68714;SDS011;55692;53.356;10.030;2023-11-22T07:40:09;18.92;;;7.30;;
68714;SDS011;55692;53.356;10.030;2023-11-22T07:42:39;14.38;;;7.43;;
68714;SDS011;55692;53.356;10.030;2023-11-22T07:45:05;16.02;;;6.80;;
68714;SDS011;55692;53.356;10.030;2023-11-22T07:47:31;19.55;;;6.38;;
68714;SDS011;55692;53.356;10.030;2023-11-22T07:49:57;16.02;;;7.25;;
68714;SDS011;55692;53.356;10.030;2023-11-22T07:52:23;12.95;;;6.90;;
68714;SDS011;55692;53.356;10.030;2023-11-22T07:54:55;19.02;;;7.63;;
68714;SDS011;55692;53.356;10.030;2023-11-22T07:57:21;11.75;;;6.25;;
68714;SDS011;55692;53.356;10.030;2023-11-22T07:59:48;14.07;;;6.13;;
68714;SDS011;55692;53.356;10.030;2023-11-22T08:02:14;16.85;;;6.20;;
68714;SDS011;55692;53.356;10.030;2023-11-22T08:04:43;14.52;;;7.00;;
68714;SDS011;55692;53.356;10.030;2023-11-22T08:07:10;15.98;;;6.35;;
68714;SDS011;55692;53.356;10.030;2023-11-22T08:09:38;13.30;;;6.68;;
68714;SDS011;55692;53.356;10.030;2023-11-22T08:12:04;18.52;;;7.07;;
68714;SDS011;55692;53.356;10.030;2023-11-22T08:14:30;14.38;;;6.80;;
68714;SDS011;55692;53.356;10.030;2023-11-22T08:16:56;14.90;;;6.65;;
68714;SDS011;55692;53.356;10.030;2023-11-22T08:19:22;17.83;;;6.95;;
68714;SDS011;55692;53.356;10.030;2023-11-22T08:21:49;18.40;;;8.15;;
68714;SDS011;55692;53.356;10.030;2023-11-22T08:24:16;16.15;;;7.90;;
68714;SDS011;55692;53.356;10.030;2023-11-22T08:26:44;19.02;;;8.52;;
68714;SDS011;55692;53.356;10.030;2023-11-22T08:29:09;20.80;;;8.57;;
68714;SDS011;55692;53.356;10.030;2023-11-22T08:31:39;20.35;;;7.90;;
68714;SDS011;55692;53.356;10.030;2023-11-22T08:34:05;18.48;;;8.70;;
68714;SDS011;55692;53.356;10.030;2023-11-22T08:36:32;17.67;;;8.35;;
68714;SDS011;55692;53.356;10.030;2023-11-22T08:39:02;20.73;;;8.88;;
68714;SDS011;55692;53.356;10.030;2023-11-22T08:41:29;20.90;;;8.75;;
68714;SDS011;55692;53.356;10.030;2023-11-22T08:43:56;23.20;;;10.23;;
68714;SDS011;55692;53.356;10.030;2023-11-22T08:46:22;19.55;;;9.05;;
68714;SDS011;55692;53.356;10.030;2023-11-22T08:48:49;18.50;;;8.90;;
68714;SDS011;55692;53.356;10.030;2023-11-22T08:51:18;16.83;;;8.13;;
68714;SDS011;55692;53.356;10.030;2023-11-22T08:53:44;20.60;;;9.85;;
68714;SDS011;55692;53.356;10.030;2023-11-22T08:56:10;21.02;;;9.10;;
68714;SDS011;55692;53.356;10.030;2023-11-22T08:58:39;18.45;;;8.85;;
68714;SDS011;55692;53.356;10.030;2023-11-22T09:01:05;20.42;;;9.70;;
68714;SDS011;55692;53.356;10.030;2023-11-22T09:03:34;20.48;;;9.75;;
68714;SDS011;55692;53.356;10.030;2023-11-22T09:06:00;16.58;;;8.10;;
68714;SDS011;55692;53.356;10.030;2023-11-22T09:08:27;18.38;;;9.30;;
68714;SDS011;55692;53.356;10.030;2023-11-22T09:10:55;17.13;;;8.45;;
68714;SDS011;55692;53.356;10.030;2023-11-22T09:13:21;20.65;;;8.32;;
68714;SDS011;55692;53.356;10.030;2023-11-22T09:15:47;15.02;;;7.50;;
68714;SDS011;55692;53.356;10.030;2023-11-22T09:18:13;19.88;;;8.05;;
68714;SDS011;55692;53.356;10.030;2023-11-22T09:20:42;16.33;;;7.80;;
68714;SDS011;55692;53.356;10.030;2023-11-22T09:23:09;26.30;;;11.75;;
68714;SDS011;55692;53.356;10.030;2023-11-22T09:25:35;27.90;;;12.93;;
68714;SDS011;55692;53.356;10.030;2023-11-22T09:28:01;27.13;;;12.35;;
68714;SDS011;55692;53.356;10.030;2023-11-22T09:30:30;19.85;;;10.23;;
68714;SDS011;55692;53.356;10.030;2023-11-22T09:33:02;22.90;;;9.48;;
68714;SDS011;55692;53.356;10.030;2023-11-22T09:35:29;21.05;;;9.15;;
68714;SDS011;55692;53.356;10.030;2023-11-22T09:37:56;18.63;;;8.50;;
68714;SDS011;55692;53.356;10.030;2023-11-22T09:40:22;22.77;;;9.63;;
68714;SDS011;55692;53.356;10.030;2023-11-22T09:42:48;21.08;;;8.98;;
68714;SDS011;55692;53.356;10.030;2023-11-22T09:45:18;19.35;;;8.95;;
68714;SDS011;55692;53.356;10.030;2023-11-22T09:47:44;21.08;;;9.30;;
68714;SDS011;55692;53.356;10.030;2023-11-22T09:50:10;25.70;;;9.38;;
68714;SDS011;55692;53.356;10.030;2023-11-22T09:52:39;17.30;;;8.40;;
68714;SDS011;55692;53.356;10.030;2023-11-22T09:55:07;18.70;;;8.52;;
68714;SDS011;55692;53.356;10.030;2023-11-22T09:57:33;17.73;;;8.68;;
68714;SDS011;55692;53.356;10.030;2023-11-22T10:00:00;20.13;;;9.05;;
68714;SDS011;55692;53.356;10.030;2023-11-22T10:02:26;16.02;;;8.50;;
68714;SDS011;55692;53.356;10.030;2023-11-22T10:04:53;19.42;;;8.35;;
68714;SDS011;55692;53.356;10.030;2023-11-22T10:07:20;16.55;;;7.28;;
68714;SDS011;55692;53.356;10.030;2023-11-22T10:09:47;18.10;;;8.30;;
68714;SDS011;55692;53.356;10.030;2023-11-22T10:12:13;17.42;;;7.72;;
68714;SDS011;55692;53.356;10.030;2023-11-22T10:14:45;18.08;;;7.72;;
68714;SDS011;55692;53.356;10.030;2023-11-22T10:17:11;13.85;;;7.63;;
68714;SDS011;55692;53.356;10.030;2023-11-22T10:19:40;17.15;;;8.15;;
68714;SDS011;55692;53.356;10.030;2023-11-22T10:22:07;17.45;;;8.35;;
68714;SDS011;55692;53.356;10.030;2023-11-22T10:24:33;11.73;;;6.88;;
68714;SDS011;55692;53.356;10.030;2023-11-22T10:27:00;17.38;;;8.25;;
68714;SDS011;55692;53.356;10.030;2023-11-22T10:29:26;21.90;;;8.68;;
68714;SDS011;55692;53.356;10.030;2023-11-22T10:31:52;15.05;;;7.88;;
68714;SDS011;55692;53.356;10.030;2023-11-22T10:34:21;17.17;;;7.68;;
68714;SDS011;55692;53.356;10.030;2023-11-22T10:36:47;14.90;;;7.50;;
68714;SDS011;55692;53.356;10.030;2023-11-22T10:39:18;10.75;;;6.45;;
68714;SDS011;55692;53.356;10.030;2023-11-22T10:41:44;16.67;;;7.82;;
68714;SDS011;55692;53.356;10.030;2023-11-22T10:44:11;22.27;;;7.90;;
68714;SDS011;55692;53.356;10.030;2023-11-22T10:46:37;14.02;;;7.28;;
68714;SDS011;55692;53.356;10.030;2023-11-22T10:49:05;16.17;;;7.30;;
68714;SDS011;55692;53.356;10.030;2023-11-22T10:51:31;11.80;;;6.97;;
68714;SDS011;55692;53.356;10.030;2023-11-22T10:53:58;18.35;;;7.82;;
68714;SDS011;55692;53.356;10.030;2023-11-22T10:56:26;14.38;;;7.55;;
68714;SDS011;55692;53.356;10.030;2023-11-22T10:58:56;12.80;;;7.13;;
68714;SDS011;55692;53.356;10.030;2023-11-22T11:01:26;13.75;;;6.55;;
68714;SDS011;55692;53.356;10.030;2023-11-22T11:04:08;12.38;;;5.63;;
68714;SDS011;55692;53.356;10.030;2023-11-22T11:06:36;10.55;;;5.47;;
68714;SDS011;55692;53.356;10.030;2023-11-22T11:09:06;10.30;;;4.97;;
68714;SDS011;55692;53.356;10.030;2023-11-22T11:11:40;9.85;;;5.00;;
68714;SDS011;55692;53.356;10.030;2023-11-22T11:14:07;13.88;;;6.30;;
68714;SDS011;55692;53.356;10.030;2023-11-22T11:16:35;13.48;;;5.43;;
68714;SDS011;55692;53.356;10.030;2023-11-22T11:19:02;10.90;;;5.93;;
68714;SDS011;55692;53.356;10.030;2023-11-22T11:21:29;7.38;;;4.78;;
68714;SDS011;55692;53.356;10.030;2023-11-22T11:23:56;8.05;;;4.22;;
68714;SDS011;55692;53.356;10.030;2023-11-22T11:26:28;8.68;;;4.13;;
68714;SDS011;55692;53.356;10.030;2023-11-22T11:28:54;6.55;;;3.83;;
68714;SDS011;55692;53.356;10.030;2023-11-22T11:31:21;10.25;;;3.83;;
68714;SDS011;55692;53.356;10.030;2023-11-22T11:36:20;5.53;;;3.60;;
68714;SDS011;55692;53.356;10.030;2023-11-22T11:38:48;9.48;;;3.75;;
68714;SDS011;55692;53.356;10.030;2023-11-22T11:41:16;8.32;;;3.15;;
68714;SDS011;55692;53.356;10.030;2023-11-22T11:43:43;4.82;;;2.80;;
68714;SDS011;55692;53.356;10.030;2023-11-22T11:46:11;4.93;;;2.67;;
68714;SDS011;55692;53.356;10.030;2023-11-22T11:48:37;5.82;;;2.78;;
68714;SDS011;55692;53.356;10.030;2023-11-22T11:51:03;3.60;;;2.30;;
68714;SDS011;55692;53.356;10.030;2023-11-22T11:53:31;4.25;;;2.65;;
68714;SDS011;55692;53.356;10.030;2023-11-22T11:55:58;4.93;;;2.33;;
68714;SDS011;55692;53.356;10.030;2023-11-22T11:58:24;4.82;;;2.03;;
68714;SDS011;55692;53.356;10.030;2023-11-22T12:00:54;4.75;;;1.90;;
68714;SDS011;55692;53.356;10.030;2023-11-22T12:03:20;3.88;;;2.03;;
68714;SDS011;55692;53.356;10.030;2023-11-22T12:05:46;3.17;;;2.10;;
68714;SDS011;55692;53.356;10.030;2023-11-22T12:08:14;2.83;;;1.75;;
68714;SDS011;55692;53.356;10.030;2023-11-22T12:10:41;4.22;;;1.77;;
68714;SDS011;55692;53.356;10.030;2023-11-22T12:13:07;2.85;;;1.60;;
68714;SDS011;55692;53.356;10.030;2023-11-22T12:15:33;3.72;;;1.85;;
68714;SDS011;55692;53.356;10.030;2023-11-22T12:18:00;4.15;;;2.15;;
68714;SDS011;55692;53.356;10.030;2023-11-22T12:20:29;3.45;;;2.00;;
68714;SDS011;55692;53.356;10.030;2023-11-22T12:22:58;3.77;;;2.17;;
68714;SDS011;55692;53.356;10.030;2023-11-22T12:25:27;5.53;;;2.03;;
68714;SDS011;55692;53.356;10.030;2023-11-22T12:27:56;6.25;;;2.78;;
68714;SDS011;55692;53.356;10.030;2023-11-22T12:30:29;4.50;;;2.20;;
68714;SDS011;55692;53.356;10.030;2023-11-22T12:32:56;4.30;;;2.58;;
68714;SDS011;55692;53.356;10.030;2023-11-22T12:35:22;9.30;;;6.32;;
68714;SDS011;55692;53.356;10.030;2023-11-22T12:37:49;16.42;;;10.75;;
68714;SDS011;55692;53.356;10.030;2023-11-22T12:40:15;8.75;;;4.93;;
68714;SDS011;55692;53.356;10.030;2023-11-22T12:43:00;4.82;;;2.15;;
68714;SDS011;55692;53.356;10.030;2023-11-22T12:45:27;4.35;;;2.17;;
68714;SDS011;55692;53.356;10.030;2023-11-22T12:47:56;5.07;;;1.98;;
68714;SDS011;55692;53.356;10.030;2023-11-22T12:53:11;4.05;;;2.28;;
68714;SDS011;55692;53.356;10.030;2023-11-22T12:55:37;4.72;;;2.25;;
68714;SDS011;55692;53.356;10.030;2023-11-22T12:58:04;6.32;;;2.50;;
68714;SDS011;55692;53.356;10.030;2023-11-22T13:00:31;3.58;;;1.80;;
68714;SDS011;55692;53.356;10.030;2023-11-22T13:02:57;3.35;;;2.25;;
68714;SDS011;55692;53.356;10.030;2023-11-22T13:05:23;3.80;;;2.10;;
68714;SDS011;55692;53.356;10.030;2023-11-22T13:07:50;8.30;;;2.67;;
68714;SDS011;55692;53.356;10.030;2023-11-22T13:10:16;5.07;;;2.33;;
68714;SDS011;55692;53.356;10.030;2023-11-22T13:12:42;5.30;;;2.15;;
68714;SDS011;55692;53.356;10.030;2023-11-22T13:15:09;5.15;;;2.38;;
68714;SDS011;55692;53.356;10.030;2023-11-22T13:17:38;2.53;;;2.03;;
68714;SDS011;55692;53.356;10.030;2023-11-22T13:20:08;8.07;;;2.90;;
68714;SDS011;55692;53.356;10.030;2023-11-22T13:22:43;3.42;;;2.30;;
68714;SDS011;55692;53.356;10.030;2023-11-22T13:25:12;3.28;;;2.22;;
68714;SDS011;55692;53.356;10.030;2023-11-22T13:27:47;5.13;;;2.63;;
68714;SDS011;55692;53.356;10.030;2023-11-22T13:30:16;5.35;;;3.20;;
68714;SDS011;55692;53.356;10.030;2023-11-22T13:32:45;9.05;;;5.15;;
68714;SDS011;55692;53.356;10.030;2023-11-22T13:35:11;7.25;;;4.50;;
68714;SDS011;55692;53.356;10.030;2023-11-22T13:37:40;4.55;;;2.90;;
68714;SDS011;55692;53.356;10.030;2023-11-22T13:40:08;6.07;;;3.33;;
68714;SDS011;55692;53.356;10.030;2023-11-22T13:42:39;7.13;;;2.85;;
68714;SDS011;55692;53.356;10.030;2023-11-22T13:45:05;6.78;;;3.03;;
68714;SDS011;55692;53.356;10.030;2023-11-22T13:47:31;4.13;;;2.47;;
68714;SDS011;55692;53.356;10.030;2023-11-22T13:49:58;4.38;;;2.22;;
68714;SDS011;55692;53.356;10.030;2023-11-22T13:52:24;2.15;;;1.40;;
68714;SDS011;55692;53.356;10.030;2023-11-22T13:54:50;1.90;;;1.27;;
68714;SDS011;55692;53.356;10.030;2023-11-22T13:57:21;2.70;;;1.50;;
68714;SDS011;55692;53.356;10.030;2023-11-22T13:59:47;2.30;;;1.38;;
68714;SDS011;55692;53.356;10.030;2023-11-22T14:02:13;2.95;;;1.67;;
68714;SDS011;55692;53.356;10.030;2023-11-22T14:04:39;3.15;;;1.58;;
68714;SDS011;55692;53.356;10.030;2023-11-22T14:07:05;4.03;;;1.90;;
68714;SDS011;55692;53.356;10.030;2023-11-22T14:09:31;2.80;;;1.60;;
68714;SDS011;55692;53.356;10.030;2023-11-22T14:12:01;4.82;;;1.83;;
68714;SDS011;55692;53.356;10.030;2023-11-22T14:14:27;2.20;;;1.38;;
68714;SDS011;55692;53.356;10.030;2023-11-22T14:16:53;2.25;;;1.58;;
68714;SDS011;55692;53.356;10.030;2023-11-22T14:19:19;3.33;;;1.45;;
68714;SDS011;55692;53.356;10.030;2023-11-22T14:21:45;4.03;;;1.80;;
68714;SDS011;55692;53.356;10.030;2023-11-22T14:24:12;2.13;;;1.65;;
68714;SDS011;55692;53.356;10.030;2023-11-22T14:26:38;2.08;;;1.45;;
68714;SDS011;55692;53.356;10.030;2023-11-22T14:29:04;2.22;;;1.65;;
68714;SDS011;55692;53.356;10.030;2023-11-22T14:31:31;5.32;;;2.00;;